createdAt,value
2023-05-13T00:01:25.120Z,100.00
2023-05-13T00:03:51.875Z,100.00
2023-05-13T00:06:18.907Z,100.00
2023-05-13T00:08:46.036Z,100.00
2023-05-13T00:11:12.821Z,100.00
2023-05-13T00:13:39.448Z,100.00
2023-05-13T00:16:06.124Z,100.00
2023-05-13T00:18:32.870Z,100.00
2023-05-13T00:20:59.606Z,100.00
2023-05-13T00:23:26.205Z,100.00
2023-05-13T00:25:52.765Z,100.00
2023-05-13T00:28:21.009Z,100.00
2023-05-13T00:30:48.019Z,100.00
2023-05-13T00:33:14.781Z,100.00
2023-05-13T00:35:41.964Z,100.00
2023-05-13T00:38:08.847Z,100.00
2023-05-13T00:40:43.668Z,100.00
2023-05-13T00:43:11.257Z,100.00
2023-05-13T00:45:38.627Z,100.00
2023-05-13T00:48:09.298Z,100.00
2023-05-13T00:50:36.209Z,100.00
2023-05-13T00:53:04.948Z,100.00
2023-05-13T00:55:31.636Z,100.00
2023-05-13T00:57:58.425Z,100.00
2023-05-13T01:00:25.089Z,100.00
2023-05-13T01:03:20.393Z,100.00
2023-05-13T01:06:18.502Z,100.00
2023-05-13T01:09:04.125Z,100.00
2023-05-13T01:11:36.848Z,100.00
2023-05-13T01:14:09.484Z,100.00
2023-05-13T01:16:49.502Z,100.00
2023-05-13T01:19:38.517Z,100.00
2023-05-13T01:22:06.851Z,100.00
2023-05-13T01:24:33.552Z,100.00
2023-05-13T01:27:00.962Z,100.00
2023-05-13T01:29:28.128Z,100.00
2023-05-13T01:31:56.656Z,100.00
2023-05-13T01:34:24.851Z,100.00
2023-05-13T01:36:51.769Z,100.00
2023-05-13T01:39:20.123Z,100.00
2023-05-13T01:41:47.180Z,100.00
2023-05-13T01:44:14.341Z,100.00
2023-05-13T01:46:43.399Z,100.00
2023-05-13T01:49:10.385Z,100.00
2023-05-13T01:51:38.047Z,100.00
2023-05-13T01:54:05.359Z,100.00
2023-05-13T01:56:32.036Z,100.00
2023-05-13T01:58:58.988Z,100.00
2023-05-13T02:01:25.636Z,100.00
2023-05-13T02:03:52.725Z,100.00
2023-05-13T02:06:19.711Z,100.00
2023-05-13T02:08:46.991Z,100.00
2023-05-13T02:11:13.587Z,100.00
2023-05-13T02:13:40.512Z,100.00
2023-05-13T02:16:07.216Z,100.00
2023-05-13T02:18:34.038Z,100.00
2023-05-13T02:21:00.735Z,100.00
2023-05-13T02:23:27.393Z,100.00
2023-05-13T02:25:54.036Z,100.00
2023-05-13T02:28:20.672Z,100.00
2023-05-13T02:30:47.309Z,100.00
2023-05-13T02:33:14.050Z,100.00
2023-05-13T02:35:40.575Z,100.00
2023-05-13T02:38:09.965Z,100.00
2023-05-13T02:40:37.447Z,100.00
2023-05-13T02:43:04.894Z,100.00
2023-05-13T02:45:33.780Z,100.00
2023-05-13T02:48:00.871Z,100.00
2023-05-13T02:50:27.510Z,100.00
2023-05-13T02:52:54.164Z,100.00
2023-05-13T02:55:20.978Z,100.00
2023-05-13T02:57:47.558Z,100.00
2023-05-13T03:00:14.765Z,100.00
2023-05-13T03:02:42.083Z,100.00
2023-05-13T03:05:09.758Z,100.00
2023-05-13T03:07:36.353Z,100.00
2023-05-13T03:10:03.593Z,100.00
2023-05-13T03:12:30.501Z,100.00
2023-05-13T03:14:57.111Z,100.00
2023-05-13T03:17:23.825Z,100.00
2023-05-13T03:19:50.593Z,100.00
2023-05-13T03:22:17.568Z,100.00
2023-05-13T03:24:44.972Z,100.00
2023-05-13T03:27:11.556Z,100.00
2023-05-13T03:29:38.221Z,100.00
2023-05-13T03:32:06.563Z,100.00
2023-05-13T03:34:33.722Z,100.00
2023-05-13T03:37:00.247Z,100.00
2023-05-13T03:39:26.944Z,100.00
2023-05-13T03:41:53.652Z,100.00
2023-05-13T03:44:20.914Z,100.00
2023-05-13T03:46:47.696Z,100.00
2023-05-13T03:49:14.311Z,100.00
2023-05-13T03:51:41.016Z,100.00
2023-05-13T03:54:07.646Z,100.00
2023-05-13T03:56:34.540Z,100.00
2023-05-13T03:59:01.100Z,100.00
2023-05-13T04:01:27.740Z,100.00
2023-05-13T04:03:54.408Z,100.00
2023-05-13T04:06:21.819Z,95.83
2023-05-13T04:08:49.359Z,94.31
2023-05-13T04:11:16.110Z,95.40
2023-05-13T04:13:46.105Z,95.01
2023-05-13T04:16:13.090Z,94.41
2023-05-13T04:18:39.793Z,93.54
2023-05-13T04:21:07.848Z,92.86
2023-05-13T04:23:34.978Z,92.13
2023-05-13T04:26:01.741Z,91.62
2023-05-13T04:28:28.431Z,91.06
2023-05-13T04:30:55.030Z,91.11
2023-05-13T04:33:21.596Z,92.44
2023-05-13T04:35:48.451Z,92.75
2023-05-13T04:38:15.128Z,92.49
2023-05-13T04:40:42.212Z,93.94
2023-05-13T04:43:09.755Z,90.56
2023-05-13T04:45:37.162Z,84.95
2023-05-13T04:48:04.107Z,78.14
2023-05-13T04:50:32.034Z,74.40
2023-05-13T04:52:59.042Z,67.50
2023-05-13T04:55:27.503Z,67.87
2023-05-13T04:57:54.584Z,67.17
2023-05-13T05:00:21.802Z,70.84
2023-05-13T05:02:48.956Z,69.66
2023-05-13T05:05:17.622Z,67.59
2023-05-13T05:07:45.108Z,64.84
2023-05-13T05:10:11.732Z,65.00
2023-05-13T05:12:38.470Z,57.85
2023-05-13T05:15:06.185Z,58.10
2023-05-13T05:17:34.080Z,59.44
2023-05-13T05:20:00.849Z,64.20
2023-05-13T05:22:27.506Z,63.58
2023-05-13T05:24:54.215Z,66.04
2023-05-13T05:27:20.878Z,63.78
2023-05-13T05:29:47.612Z,62.97
2023-05-13T05:32:14.448Z,62.06
2023-05-13T05:34:41.211Z,63.46
2023-05-13T05:37:07.898Z,64.28
2023-05-13T05:39:35.425Z,66.61
2023-05-13T05:42:02.385Z,66.93
2023-05-13T05:44:29.129Z,67.31
2023-05-13T05:46:55.776Z,66.72
2023-05-13T05:49:22.428Z,66.31
2023-05-13T05:51:49.085Z,62.82
2023-05-13T05:54:15.902Z,61.61
2023-05-13T05:56:42.751Z,62.50
2023-05-13T05:59:09.467Z,64.35
2023-05-13T06:01:36.976Z,63.46
2023-05-13T06:04:04.580Z,64.35
2023-05-13T06:06:32.812Z,65.58
2023-05-13T06:08:59.538Z,65.31
2023-05-13T06:11:26.640Z,62.09
2023-05-13T06:13:54.135Z,62.11
2023-05-13T06:16:20.891Z,63.07
2023-05-13T06:18:47.601Z,66.55
2023-05-13T06:21:14.291Z,63.50
2023-05-13T06:23:41.042Z,64.19
2023-05-13T06:26:08.288Z,62.85
2023-05-13T06:28:34.887Z,61.57
2023-05-13T06:31:01.682Z,61.44
2023-05-13T06:33:28.586Z,62.34
2023-05-13T06:35:55.419Z,61.37
2023-05-13T06:38:22.058Z,62.24
2023-05-13T06:40:48.769Z,59.46
2023-05-13T06:43:16.600Z,58.88
2023-05-13T06:45:43.327Z,57.54
2023-05-13T06:48:10.288Z,59.72
2023-05-13T06:50:36.860Z,58.64
2023-05-13T06:53:03.485Z,59.14
2023-05-13T06:55:30.075Z,57.89
2023-05-13T06:57:56.795Z,58.84
2023-05-13T07:00:24.087Z,57.52
2023-05-13T07:02:50.984Z,57.66
2023-05-13T07:05:18.269Z,57.34
2023-05-13T07:07:44.852Z,57.24
2023-05-13T07:10:11.566Z,56.13
2023-05-13T07:12:38.305Z,56.04
2023-05-13T07:15:05.873Z,54.92
2023-05-13T07:17:32.615Z,55.70
2023-05-13T07:19:59.429Z,54.77
2023-05-13T07:22:26.072Z,54.49
2023-05-13T07:24:52.617Z,54.89
2023-05-13T07:27:19.547Z,54.08
2023-05-13T07:29:46.390Z,54.63
2023-05-13T07:32:13.005Z,54.71
2023-05-13T07:34:39.705Z,54.51
2023-05-13T07:37:06.299Z,55.30
2023-05-13T07:39:33.010Z,55.19
2023-05-13T07:41:59.563Z,54.31
2023-05-13T07:44:26.639Z,54.39
2023-05-13T07:46:53.754Z,55.85
2023-05-13T07:49:21.574Z,55.92
2023-05-13T07:51:48.305Z,56.03
2023-05-13T07:54:14.948Z,55.50
2023-05-13T07:56:44.138Z,53.37
2023-05-13T07:59:11.269Z,53.05
2023-05-13T08:01:38.201Z,53.45
2023-05-13T08:04:04.912Z,53.96
2023-05-13T08:06:32.839Z,56.02
2023-05-13T08:08:59.770Z,56.26
2023-05-13T08:11:26.772Z,55.09
2023-05-13T08:13:53.581Z,55.43
2023-05-13T08:16:20.335Z,54.15
2023-05-13T08:18:47.178Z,53.79
2023-05-13T08:21:13.851Z,53.79
2023-05-13T08:23:44.871Z,55.53
2023-05-13T08:26:12.123Z,54.99
2023-05-13T08:28:38.753Z,54.07
2023-05-13T08:31:05.393Z,52.09
2023-05-13T08:33:33.012Z,51.69
2023-05-13T08:36:01.134Z,52.03
2023-05-13T08:38:27.994Z,51.91
2023-05-13T08:40:54.817Z,51.97
2023-05-13T08:43:24.346Z,52.12
2023-05-13T08:45:53.597Z,53.25
2023-05-13T08:48:21.602Z,56.15
2023-05-13T08:50:48.735Z,55.07
2023-05-13T08:53:18.463Z,54.82
2023-05-13T08:55:45.615Z,54.44
2023-05-13T08:58:12.604Z,54.28
2023-05-13T09:00:39.901Z,55.77
2023-05-13T09:03:07.201Z,56.09
2023-05-13T09:05:35.745Z,57.37
2023-05-13T09:08:11.296Z,58.25
2023-05-13T09:10:38.557Z,58.65
2023-05-13T09:13:06.215Z,57.89
2023-05-13T09:15:33.447Z,59.72
2023-05-13T09:18:03.429Z,60.63
2023-05-13T09:20:30.776Z,63.11
2023-05-13T09:23:04.126Z,62.00
2023-05-13T09:25:31.807Z,61.55
2023-05-13T09:28:03.776Z,59.52
2023-05-13T09:30:41.077Z,58.52
2023-05-13T09:33:20.149Z,58.69
2023-05-13T09:35:53.794Z,58.74
2023-05-13T09:38:29.219Z,58.71
2023-05-13T09:41:00.868Z,58.66
2023-05-13T09:43:32.725Z,58.28
2023-05-13T09:46:04.640Z,59.37
2023-05-13T09:48:35.169Z,60.56
2023-05-13T09:51:02.006Z,59.44
2023-05-13T09:53:29.036Z,59.71
2023-05-13T09:55:57.851Z,59.85
2023-05-13T09:58:28.156Z,59.52
2023-05-13T10:00:55.723Z,60.38
2023-05-13T10:03:22.710Z,59.94
2023-05-13T10:05:50.144Z,60.13
2023-05-13T10:08:18.147Z,60.78
2023-05-13T10:10:47.554Z,60.18
2023-05-13T10:13:16.708Z,60.15
2023-05-13T10:15:52.612Z,59.85
2023-05-13T10:18:20.632Z,59.59
2023-05-13T10:20:48.080Z,59.79
2023-05-13T10:23:15.559Z,59.34
2023-05-13T10:25:43.731Z,59.55
2023-05-13T10:28:10.905Z,58.99
2023-05-13T10:30:38.396Z,59.19
2023-05-13T10:33:05.594Z,58.51
2023-05-13T10:35:39.850Z,58.31
2023-05-13T10:38:22.524Z,58.28
2023-05-13T10:41:15.414Z,58.30
2023-05-13T10:43:42.988Z,59.01
2023-05-13T10:46:12.871Z,60.04
2023-05-13T10:48:47.483Z,60.30
2023-05-13T10:51:15.612Z,60.45
2023-05-13T10:53:50.779Z,61.38
2023-05-13T10:56:22.164Z,60.74
2023-05-13T10:59:02.557Z,60.46
2023-05-13T11:01:43.902Z,60.23
2023-05-13T11:04:20.299Z,60.03
2023-05-13T11:06:48.659Z,60.09
2023-05-13T11:09:16.127Z,60.08
2023-05-13T11:11:47.859Z,59.81
2023-05-13T11:14:21.472Z,59.95
2023-05-13T11:17:00.386Z,60.28
2023-05-13T11:19:30.645Z,59.90
2023-05-13T11:22:22.180Z,59.68
2023-05-13T11:25:04.075Z,60.13
2023-05-13T11:27:37.755Z,59.88
2023-05-13T11:30:07.893Z,59.83
2023-05-13T11:33:08.559Z,59.87
2023-05-13T11:35:35.563Z,59.58
2023-05-13T11:38:03.965Z,59.46
2023-05-13T11:40:32.985Z,61.58
2023-05-13T11:43:00.451Z,60.86
2023-05-13T11:45:28.607Z,59.76
2023-05-13T11:47:59.455Z,59.88
2023-05-13T11:50:27.365Z,59.41
2023-05-13T11:53:01.335Z,59.39
2023-05-13T11:55:30.425Z,58.78
2023-05-13T11:57:58.203Z,58.54
2023-05-13T12:00:33.989Z,58.75
2023-05-13T12:03:09.107Z,57.69
2023-05-13T12:05:36.283Z,57.84
2023-05-13T12:08:03.080Z,57.85
2023-05-13T12:10:29.829Z,57.04
2023-05-13T12:12:57.329Z,56.88
2023-05-13T12:15:24.482Z,58.08
2023-05-13T12:17:51.718Z,58.99
2023-05-13T12:20:20.793Z,58.89
2023-05-13T12:22:47.517Z,59.38
2023-05-13T12:25:32.995Z,59.34
2023-05-13T12:28:00.250Z,58.58
2023-05-13T12:30:34.169Z,58.33
2023-05-13T12:33:01.327Z,57.83
2023-05-13T12:35:28.280Z,58.04
2023-05-13T12:38:05.498Z,57.94
2023-05-13T12:40:32.783Z,57.92
2023-05-13T12:43:02.047Z,57.95
2023-05-13T12:45:30.708Z,57.29
2023-05-13T12:47:58.903Z,57.39
2023-05-13T12:50:26.046Z,57.71
2023-05-13T12:52:53.633Z,58.22
2023-05-13T12:55:20.759Z,57.72
2023-05-13T12:58:00.321Z,58.28
2023-05-13T13:00:27.611Z,57.82
2023-05-13T13:02:54.489Z,58.29
2023-05-13T13:05:22.188Z,58.41
2023-05-13T13:07:49.295Z,58.75
2023-05-13T13:10:16.209Z,58.60
2023-05-13T13:12:43.312Z,58.82
2023-05-13T13:15:10.913Z,58.69
2023-05-13T13:17:38.157Z,58.67
2023-05-13T13:20:07.358Z,58.38
2023-05-13T13:22:36.949Z,58.33
2023-05-13T13:25:05.893Z,57.87
2023-05-13T13:27:33.902Z,57.73
2023-05-13T13:30:00.583Z,57.69
2023-05-13T13:32:27.485Z,57.45
2023-05-13T13:34:54.170Z,57.16
2023-05-13T13:37:20.747Z,57.00
2023-05-13T13:39:47.410Z,57.12
2023-05-13T13:42:14.070Z,57.05
2023-05-13T13:44:41.185Z,56.38
2023-05-13T13:47:07.863Z,57.01
2023-05-13T13:49:34.559Z,56.71
2023-05-13T13:52:01.190Z,57.16
2023-05-13T13:54:27.871Z,57.44
2023-05-13T13:56:54.561Z,57.29
2023-05-13T13:59:21.181Z,58.02
2023-05-13T14:01:48.126Z,57.46
2023-05-13T14:04:23.737Z,57.00
2023-05-13T14:06:51.519Z,57.23
2023-05-13T14:09:18.650Z,56.88
2023-05-13T14:11:45.750Z,56.65
2023-05-13T14:14:12.388Z,56.69
2023-05-13T14:16:39.111Z,56.59
2023-05-13T14:21:32.578Z,56.55
2023-05-13T14:23:59.342Z,56.98
2023-05-13T14:26:26.637Z,58.22
2023-05-13T14:28:54.107Z,57.44
2023-05-13T14:31:21.099Z,57.61
2023-05-13T14:33:47.901Z,57.61
2023-05-13T14:36:16.366Z,57.86
2023-05-13T14:38:43.774Z,57.88
2023-05-13T14:41:10.976Z,57.71
2023-05-13T14:43:37.669Z,57.66
2023-05-13T14:46:05.090Z,57.80
2023-05-13T14:48:31.829Z,57.72
2023-05-13T14:50:58.455Z,57.59
2023-05-13T14:53:25.028Z,57.54
2023-05-13T14:55:51.843Z,57.74
2023-05-13T14:58:18.756Z,57.49
2023-05-13T15:00:45.502Z,57.49
2023-05-13T15:03:12.573Z,57.59
2023-05-13T15:05:40.442Z,57.55
2023-05-13T15:08:08.819Z,57.57
2023-05-13T15:10:35.468Z,57.30
2023-05-13T15:13:02.320Z,57.06
2023-05-13T15:15:29.170Z,57.14
2023-05-13T15:17:55.959Z,56.98
2023-05-13T15:20:23.035Z,57.60
2023-05-13T15:22:49.881Z,57.61
2023-05-13T15:25:16.796Z,57.48
2023-05-13T15:27:44.813Z,57.82
2023-05-13T15:30:11.798Z,57.71
2023-05-13T15:32:38.452Z,57.34
2023-05-13T15:35:05.949Z,57.28
2023-05-13T15:37:32.661Z,57.42
2023-05-13T15:39:59.330Z,57.39
2023-05-13T15:42:26.053Z,57.60
2023-05-13T15:44:53.120Z,58.33
2023-05-13T15:47:19.833Z,58.86
2023-05-13T15:49:46.929Z,59.43
2023-05-13T15:52:14.790Z,60.00
2023-05-13T15:54:41.511Z,60.15
2023-05-13T15:57:26.914Z,60.45
2023-05-13T15:59:53.953Z,60.69
2023-05-13T16:02:21.220Z,61.07
2023-05-13T16:04:47.951Z,60.81
2023-05-13T16:07:14.668Z,61.09
2023-05-13T16:09:41.347Z,60.88
2023-05-13T16:12:08.169Z,61.11
2023-05-13T16:14:34.841Z,61.23
2023-05-13T16:17:01.721Z,60.86
2023-05-13T16:19:28.291Z,61.68
2023-05-13T16:21:54.928Z,61.96
2023-05-13T16:24:22.711Z,62.44
2023-05-13T16:26:49.335Z,62.08
2023-05-13T16:29:15.975Z,62.04
2023-05-13T16:31:42.688Z,62.37
2023-05-13T16:34:09.405Z,62.40
2023-05-13T16:36:36.359Z,62.52
2023-05-13T16:39:03.051Z,62.58
2023-05-13T16:41:29.664Z,62.83
2023-05-13T16:43:56.321Z,62.68
2023-05-13T16:46:23.784Z,62.55
2023-05-13T16:48:50.540Z,62.65
2023-05-13T16:51:17.141Z,62.76
2023-05-13T16:53:43.804Z,62.97
2023-05-13T16:56:10.460Z,62.97
2023-05-13T16:58:37.920Z,62.87
2023-05-13T17:01:04.729Z,62.99
2023-05-13T17:03:31.512Z,62.82
2023-05-13T17:05:58.240Z,62.95
2023-05-13T17:08:24.816Z,63.02
2023-05-13T17:10:51.363Z,63.52
2023-05-13T17:13:19.844Z,64.74
2023-05-13T17:15:47.010Z,65.34
2023-05-13T17:18:13.717Z,65.95
2023-05-13T17:20:40.529Z,66.70
2023-05-13T17:23:07.210Z,67.41
2023-05-13T17:25:33.739Z,68.08
2023-05-13T17:28:00.381Z,68.40
2023-05-13T17:30:26.976Z,68.01
2023-05-13T17:32:53.721Z,67.75
2023-05-13T17:35:20.439Z,68.01
2023-05-13T17:37:47.097Z,67.55
2023-05-13T17:40:13.995Z,67.75
2023-05-13T17:42:40.652Z,67.82
2023-05-13T17:45:08.459Z,68.19
2023-05-13T17:47:35.486Z,67.77
2023-05-13T17:50:02.189Z,68.09
2023-05-13T17:52:28.789Z,68.09
2023-05-13T17:54:55.750Z,68.09
2023-05-13T17:57:22.405Z,68.17
2023-05-13T17:59:49.440Z,68.28
2023-05-13T18:02:16.208Z,68.43
2023-05-13T18:04:43.227Z,68.38
2023-05-13T18:07:09.906Z,68.54
2023-05-13T18:09:36.531Z,68.75
2023-05-13T18:12:03.391Z,69.11
2023-05-13T18:14:32.491Z,69.18
2023-05-13T18:16:59.771Z,68.84
2023-05-13T18:19:26.833Z,69.06
2023-05-13T18:21:53.458Z,68.80
2023-05-13T18:24:20.557Z,68.96
2023-05-13T18:26:47.765Z,69.10
2023-05-13T18:29:14.393Z,68.90
2023-05-13T18:31:41.574Z,69.05
2023-05-13T18:34:08.330Z,69.49
2023-05-13T18:36:35.188Z,68.93
2023-05-13T18:39:01.724Z,69.65
2023-05-13T18:41:28.249Z,69.68
2023-05-13T18:43:55.253Z,69.66
2023-05-13T18:46:22.457Z,69.90
2023-05-13T18:48:49.072Z,70.06
2023-05-13T18:51:16.560Z,70.14
2023-05-13T18:53:43.177Z,70.54
2023-05-13T18:56:09.881Z,70.86
2023-05-13T18:58:36.612Z,71.16
2023-05-13T19:01:03.520Z,71.16
2023-05-13T19:03:30.898Z,71.37
2023-05-13T19:05:57.536Z,71.65
2023-05-13T19:08:24.093Z,71.56
2023-05-13T19:10:50.888Z,71.89
2023-05-13T19:13:19.906Z,71.94
2023-05-13T19:15:46.992Z,72.21
2023-05-13T19:18:13.740Z,72.17
2023-05-13T19:20:40.857Z,72.02
2023-05-13T19:23:07.444Z,72.11
2023-05-13T19:25:34.129Z,71.99
2023-05-13T19:28:01.779Z,72.11
2023-05-13T19:30:28.465Z,72.07
2023-05-13T19:32:55.137Z,71.84
2023-05-13T19:35:23.469Z,72.00
2023-05-13T19:37:50.564Z,72.40
2023-05-13T19:40:17.341Z,72.60
2023-05-13T19:42:44.057Z,72.16
2023-05-13T19:45:11.425Z,72.15
2023-05-13T19:47:38.382Z,72.25
2023-05-13T19:50:05.541Z,72.51
2023-05-13T19:52:32.553Z,72.98
2023-05-13T19:54:59.210Z,72.84
2023-05-13T19:57:29.305Z,72.67
2023-05-13T19:59:56.626Z,72.10
2023-05-13T20:02:23.247Z,72.59
2023-05-13T20:04:49.831Z,73.04
2023-05-13T20:07:16.469Z,73.06
2023-05-13T20:09:43.175Z,73.37
2023-05-13T20:12:09.941Z,73.57
2023-05-13T20:14:51.902Z,74.31
2023-05-13T20:17:21.400Z,74.31
2023-05-13T20:19:49.845Z,74.15
2023-05-13T20:22:18.665Z,74.22
2023-05-13T20:24:47.418Z,74.18
2023-05-13T20:27:14.883Z,74.39
2023-05-13T20:29:47.864Z,74.17
2023-05-13T20:32:18.459Z,74.56
2023-05-13T20:34:45.079Z,73.96
2023-05-13T20:37:11.883Z,74.14
2023-05-13T20:39:38.951Z,73.92
2023-05-13T20:42:05.819Z,74.21
2023-05-13T20:44:32.789Z,74.48
2023-05-13T20:46:59.422Z,74.34
2023-05-13T20:49:26.160Z,74.03
2023-05-13T20:51:52.873Z,74.18
2023-05-13T20:54:20.420Z,73.95
2023-05-13T20:56:47.350Z,73.01
2023-05-13T20:59:14.004Z,73.40
2023-05-13T21:01:41.517Z,73.07
2023-05-13T21:04:09.995Z,72.91
2023-05-13T21:06:36.717Z,72.65
2023-05-13T21:09:04.254Z,72.91
2023-05-13T21:11:31.088Z,72.70
2023-05-13T21:13:57.777Z,73.14
2023-05-13T21:16:24.547Z,73.09
2023-05-13T21:18:51.303Z,72.96
2023-05-13T21:21:18.005Z,72.70
2023-05-13T21:23:46.152Z,72.71
2023-05-13T21:26:13.336Z,72.55
2023-05-13T21:28:40.457Z,73.14
2023-05-13T21:31:07.130Z,72.97
2023-05-13T21:33:33.815Z,73.59
2023-05-13T21:36:00.455Z,73.74
2023-05-13T21:38:27.384Z,73.72
2023-05-13T21:40:54.403Z,73.71
2023-05-13T21:43:21.929Z,73.49
2023-05-13T21:45:49.380Z,73.23
2023-05-13T21:48:16.753Z,73.60
2023-05-13T21:50:43.381Z,73.78
2023-05-13T21:53:10.484Z,73.67
2023-05-13T21:55:37.658Z,74.00
2023-05-13T21:58:04.286Z,74.77
2023-05-13T22:00:31.953Z,74.90
2023-05-13T22:03:00.638Z,75.41
2023-05-13T22:05:27.800Z,75.34
2023-05-13T22:07:54.485Z,75.18
2023-05-13T22:10:21.277Z,74.82
2023-05-13T22:12:48.479Z,74.49
2023-05-13T22:15:15.451Z,73.54
2023-05-13T22:17:42.220Z,73.35
2023-05-13T22:20:09.299Z,73.62
2023-05-13T22:22:36.034Z,73.50
2023-05-13T22:25:03.559Z,73.61
2023-05-13T22:27:30.244Z,73.32
2023-05-13T22:29:57.004Z,73.17
2023-05-13T22:32:23.814Z,73.46
2023-05-13T22:34:50.952Z,73.37
2023-05-13T22:37:17.540Z,73.48
2023-05-13T22:39:44.354Z,73.49
2023-05-13T22:42:11.014Z,73.46
2023-05-13T22:44:38.066Z,73.77
2023-05-13T22:47:04.849Z,73.46
2023-05-13T22:49:33.789Z,73.12
2023-05-13T22:52:00.590Z,73.43
2023-05-13T22:54:27.304Z,72.89
2023-05-13T22:56:53.910Z,73.15
2023-05-13T22:59:20.883Z,72.91
2023-05-13T23:01:47.551Z,72.51
2023-05-13T23:04:14.320Z,72.51
2023-05-13T23:06:41.230Z,72.22
2023-05-13T23:09:07.938Z,72.24
2023-05-13T23:11:36.746Z,71.71
2023-05-13T23:14:03.289Z,71.10
2023-05-13T23:16:29.916Z,71.34
2023-05-13T23:18:56.741Z,71.25
2023-05-13T23:21:23.555Z,71.50
2023-05-13T23:23:50.488Z,71.62
2023-05-13T23:26:17.218Z,71.50
2023-05-13T23:28:43.852Z,71.71
2023-05-13T23:31:10.530Z,71.57
2023-05-13T23:33:37.405Z,71.44
2023-05-13T23:36:04.269Z,71.55
2023-05-13T23:38:32.281Z,71.63
2023-05-13T23:40:59.174Z,71.60
2023-05-13T23:43:26.250Z,71.65
2023-05-13T23:45:53.706Z,71.70
2023-05-13T23:48:20.312Z,71.75
2023-05-13T23:50:47.077Z,72.09
2023-05-13T23:53:13.719Z,71.88
2023-05-13T23:55:40.496Z,71.78
2023-05-13T23:58:07.068Z,71.83
